sensor_id;sensor_type;location;lat;lon;timestamp;P1;P2;P0
74436;PMS7003;62868;52.360;30.424;2023-01-29T00:01:39;1.8;1;0.3
74436;PMS7003;62868;52.360;30.424;2023-01-29T00:06:41;0.3;0;0
74436;PMS7003;62868;52.360;30.424;2023-01-29T00:11:07;0.7;0.3;0
74436;PMS7003;62868;52.360;30.424;2023-01-29T00:16:17;0.3;0;0
74436;PMS7003;62868;52.360;30.424;2023-01-29T00:21:17;2.3;1;0
74436;PMS7003;62868;52.360;30.424;2023-01-29T00:26:41;2.3;0.7;0.7
74436;PMS7003;62868;52.360;30.424;2023-01-29T00:31:43;1;0.7;0.3
74436;PMS7003;62868;52.360;30.424;2023-01-29T00:36:15;1.3;1;0.7
74436;PMS7003;62868;52.360;30.424;2023-01-29T00:41:51;0.8;0.3;0
74436;PMS7003;62868;52.360;30.424;2023-01-29T00:46:07;0.7;0.3;0
74436;PMS7003;62868;52.360;30.424;2023-01-29T00:51:19;0.7;0.3;0
74436;PMS7003;62868;52.360;30.424;2023-01-29T00:56:07;0;0;0
74436;PMS7003;62868;52.360;30.424;2023-01-29T01:01:41;0.8;0.8;0.5
74436;PMS7003;62868;52.360;30.424;2023-01-29T01:06:17;0.7;0;0
74436;PMS7003;62868;52.360;30.424;2023-01-29T01:11:17;1;0;0
74436;PMS7003;62868;52.360;30.424;2023-01-29T01:16:08;1;0.7;0.3
74436;PMS7003;62868;52.360;30.424;2023-01-29T01:21:41;1.5;0.8;0.3
74436;PMS7003;62868;52.360;30.424;2023-01-29T01:26:55;1.3;1;0.3
74436;PMS7003;62868;52.360;30.424;2023-01-29T01:31:27;1;0.3;0.3
74436;PMS7003;62868;52.360;30.424;2023-01-29T01:36:51;1.8;0.8;0.8
74436;PMS7003;62868;52.360;30.424;2023-01-29T01:41:07;0.7;0.7;0.3
74436;PMS7003;62868;52.360;30.424;2023-01-29T01:46:37;1;0.7;0.7
74436;PMS7003;62868;52.360;30.424;2023-01-29T01:51:17;2;0.7;0.3
74436;PMS7003;62868;52.360;30.424;2023-01-29T01:56:28;0.8;0.8;0
74436;PMS7003;62868;52.360;30.424;2023-01-29T02:01:07;1.7;0.7;0.3
74436;PMS7003;62868;52.360;30.424;2023-01-29T02:06:07;2;0.3;0
74436;PMS7003;62868;52.360;30.424;2023-01-29T02:11:41;1.7;1.3;0.3
74436;PMS7003;62868;52.360;30.424;2023-01-29T02:16:53;1.5;0.8;0.3
74436;PMS7003;62868;52.360;30.424;2023-01-29T02:22:01;0;0;0
74436;PMS7003;62868;52.360;30.424;2023-01-29T02:26:45;2;1;0
74436;PMS7003;62868;52.360;30.424;2023-01-29T02:31:45;2;1;0.3
74436;PMS7003;62868;52.360;30.424;2023-01-29T02:36:32;1.3;0.3;0
74436;PMS7003;62868;52.360;30.424;2023-01-29T02:41:41;0.7;0.7;0
74436;PMS7003;62868;52.360;30.424;2023-01-29T02:46:20;1.3;1;0.3
74436;PMS7003;62868;52.360;30.424;2023-01-29T02:51:43;0.7;0;0
74436;PMS7003;62868;52.360;30.424;2023-01-29T02:56:33;0.5;0;0
74436;PMS7003;62868;52.360;30.424;2023-01-29T03:01:55;1.3;1;0.7
74436;PMS7003;62868;52.360;30.424;2023-01-29T03:06:34;1;0.7;0
74436;PMS7003;62868;52.360;30.424;2023-01-29T03:11:44;2.3;0.3;0
74436;PMS7003;62868;52.360;30.424;2023-01-29T03:16:41;1.8;0.8;0.3
74436;PMS7003;62868;52.360;30.424;2023-01-29T03:21:22;1.7;1;0.3
74436;PMS7003;62868;52.360;30.424;2023-01-29T03:26:17;2.3;1;0.7
74436;PMS7003;62868;52.360;30.424;2023-01-29T03:31:43;1;0.5;0
74436;PMS7003;62868;52.360;30.424;2023-01-29T03:36:39;0.3;0;0
74436;PMS7003;62868;52.360;30.424;2023-01-29T03:41:22;0.3;0.3;0
74436;PMS7003;62868;52.360;30.424;2023-01-29T03:46:24;0.7;0.3;0
74436;PMS7003;62868;52.360;30.424;2023-01-29T03:51:36;0.5;0;0
74436;PMS7003;62868;52.360;30.424;2023-01-29T03:56:58;0.7;0.7;0
74436;PMS7003;62868;52.360;30.424;2023-01-29T04:01:23;1.3;1;0
74436;PMS7003;62868;52.360;30.424;2023-01-29T04:06:41;0.7;0.7;0
74436;PMS7003;62868;52.360;30.424;2023-01-29T04:11:33;0.5;0.5;0.3
74436;PMS7003;62868;52.360;30.424;2023-01-29T04:16:08;1.3;0.7;0.3
74436;PMS7003;62868;52.360;30.424;2023-01-29T04:21:07;2.3;1;0
74436;PMS7003;62868;52.360;30.424;2023-01-29T04:26:22;1.7;0.7;0.3
74436;PMS7003;62868;52.360;30.424;2023-01-29T04:31:56;1.3;0.5;0.3
74436;PMS7003;62868;52.360;30.424;2023-01-29T04:36:58;2;1;0.7
74436;PMS7003;62868;52.360;30.424;2023-01-29T04:41:07;1.7;0.7;0
74436;PMS7003;62868;52.360;30.424;2023-01-29T04:46:56;3;0.7;0
74436;PMS7003;62868;52.360;30.424;2023-01-29T04:51:57;2;0.8;0.3
74436;PMS7003;62868;52.360;30.424;2023-01-29T04:56:20;1;0.7;0.3
74436;PMS7003;62868;52.360;30.424;2023-01-29T05:01:31;1.3;1;0
74436;PMS7003;62868;52.360;30.424;2023-01-29T05:06:55;1.3;0.5;0
74436;PMS7003;62868;52.360;30.424;2023-01-29T05:11:21;2.3;0.7;0.7
74436;PMS7003;62868;52.360;30.424;2023-01-29T05:16:43;1;0.7;0.3
74436;PMS7003;62868;52.360;30.424;2023-01-29T05:21:45;2.3;1;0.3
74436;PMS7003;62868;52.360;30.424;2023-01-29T05:26:43;1.3;0.5;0.3
74436;PMS7003;62868;52.360;30.424;2023-01-29T05:31:35;2.3;1;0.7
74436;PMS7003;62868;52.360;30.424;2023-01-29T05:36:29;1.3;0.7;0
74436;PMS7003;62868;52.360;30.424;2023-01-29T05:41:51;1.7;0;0
74436;PMS7003;62868;52.360;30.424;2023-01-29T05:46:31;2.3;1;0.5
74436;PMS7003;62868;52.360;30.424;2023-01-29T05:51:45;2.3;1;0.7
74436;PMS7003;62868;52.360;30.424;2023-01-29T05:56:07;1;0.3;0
74436;PMS7003;62868;52.360;30.424;2023-01-29T06:01:33;0.7;0.7;0.3
74436;PMS7003;62868;52.360;30.424;2023-01-29T06:06:19;1.5;1.5;1
74436;PMS7003;62868;52.360;30.424;2023-01-29T06:11:29;1.3;0.7;0.7
74436;PMS7003;62868;52.360;30.424;2023-01-29T06:16:23;1.3;0.3;0
74436;PMS7003;62868;52.360;30.424;2023-01-29T06:21:45;1;0.7;0
74436;PMS7003;62868;52.360;30.424;2023-01-29T06:26:57;0.8;0.8;0
74436;PMS7003;62868;52.360;30.424;2023-01-29T06:31:17;1.3;1;0
74436;PMS7003;62868;52.360;30.424;2023-01-29T06:36:53;2.7;1.3;0.3
74436;PMS7003;62868;52.360;30.424;2023-01-29T06:41:19;2;0.7;0
74436;PMS7003;62868;52.360;30.424;2023-01-29T06:46:43;3;1.5;0.5
74436;PMS7003;62868;52.360;30.424;2023-01-29T06:51:21;2.3;1;1
74436;PMS7003;62868;52.360;30.424;2023-01-29T06:56:43;1.3;0.7;0.3
74436;PMS7003;62868;52.360;30.424;2023-01-29T07:01:07;2;1.5;0.3
74436;PMS7003;62868;52.360;30.424;2023-01-29T07:06:41;2;1;0.7
74436;PMS7003;62868;52.360;30.424;2023-01-29T07:11:43;1.3;1.3;0.3
74436;PMS7003;62868;52.360;30.424;2023-01-29T07:16:47;2;1.3;0.3
74436;PMS7003;62868;52.360;30.424;2023-01-29T07:21:55;1.3;0.8;0.8
74436;PMS7003;62868;52.360;30.424;2023-01-29T07:26:45;2;1.3;1.3
74436;PMS7003;62868;52.360;30.424;2023-01-29T07:31:55;2;1.3;0.7
74436;PMS7003;62868;52.360;30.424;2023-01-29T07:36:07;2.7;2;1.3
74436;PMS7003;62868;52.360;30.424;2023-01-29T07:41:41;3.8;1.3;0.8
74436;PMS7003;62868;52.360;30.424;2023-01-29T07:46:33;4.3;1.7;1
74436;PMS7003;62868;52.360;30.424;2023-01-29T07:51:43;2.7;1.3;1
74436;PMS7003;62868;52.360;30.424;2023-01-29T07:56:19;1.7;1.3;0.7
74436;PMS7003;62868;52.360;30.424;2023-01-29T08:01:41;3.3;1.7;1
74436;PMS7003;62868;52.360;30.424;2023-01-29T08:06:19;1.5;1;0.5
74436;PMS7003;62868;52.360;30.424;2023-01-29T08:11:55;2.7;1.3;1
74436;PMS7003;62868;52.360;30.424;2023-01-29T08:16:45;1;0.7;0.7
74436;PMS7003;62868;52.360;30.424;2023-01-29T08:21:43;1.8;0.8;0.5
74436;PMS7003;62868;52.360;30.424;2023-01-29T08:26:21;2.3;1;0.7
74436;PMS7003;62868;52.360;30.424;2023-01-29T08:31:11;3.7;1.3;1
74436;PMS7003;62868;52.360;30.424;2023-01-29T08:36:29;2.3;1.3;0.7
74436;PMS7003;62868;52.360;30.424;2023-01-29T08:41:17;1.3;0.8;0.3
74436;PMS7003;62868;52.360;30.424;2023-01-29T08:46:21;1;0.7;0
74436;PMS7003;62868;52.360;30.424;2023-01-29T08:51:45;3;1.5;0.5
74436;PMS7003;62868;52.360;30.424;2023-01-29T08:56:57;1.3;1;0.3
74436;PMS7003;62868;52.360;30.424;2023-01-29T09:01:21;1;1;0.5
74436;PMS7003;62868;52.360;30.424;2023-01-29T09:06:43;2.5;0.5;0
74436;PMS7003;62868;52.360;30.424;2023-01-29T09:11:07;1;0.7;0.3
74436;PMS7003;62868;52.360;30.424;2023-01-29T09:16:07;1.3;0.3;0.3
74436;PMS7003;62868;52.360;30.424;2023-01-29T09:21:07;1.7;0.7;0.3
74436;PMS7003;62868;52.360;30.424;2023-01-29T09:26:07;2;1;1
74436;PMS7003;62868;52.360;30.424;2023-01-29T09:31:55;1.7;1;0.7
74436;PMS7003;62868;52.360;30.424;2023-01-29T09:36:53;2;1;0.7
74436;PMS7003;62868;52.360;30.424;2023-01-29T09:41:08;1.3;1.3;0.7
74436;PMS7003;62868;52.360;30.424;2023-01-29T09:46:55;2;1;0.3
74436;PMS7003;62868;52.360;30.424;2023-01-29T09:51:57;1;0.7;0.7
74436;PMS7003;62868;52.360;30.424;2023-01-29T09:56:33;1;1;0
74436;PMS7003;62868;52.360;30.424;2023-01-29T10:01:21;1;0.7;0.3
74436;PMS7003;62868;52.360;30.424;2023-01-29T10:06:59;0.8;0.8;0
74436;PMS7003;62868;52.360;30.424;2023-01-29T10:11:25;1;0.7;0.3
74436;PMS7003;62868;52.360;30.424;2023-01-29T10:16:35;0.7;0.3;0
74436;PMS7003;62868;52.360;30.424;2023-01-29T10:21:24;1;0.7;0
74436;PMS7003;62868;52.360;30.424;2023-01-29T10:26:55;1;0.5;0
74436;PMS7003;62868;52.360;30.424;2023-01-29T10:31:43;1.7;0.7;0.3
74436;PMS7003;62868;52.360;30.424;2023-01-29T10:36:39;0.7;0.3;0
74436;PMS7003;62868;52.360;30.424;2023-01-29T10:41:57;1;0.7;0
74436;PMS7003;62868;52.360;30.424;2023-01-29T10:46:59;1.8;0.5;0
74436;PMS7003;62868;52.360;30.424;2023-01-29T10:51:09;1.3;0;0
74436;PMS7003;62868;52.360;30.424;2023-01-29T10:56:10;0.3;0;0
74436;PMS7003;62868;52.360;30.424;2023-01-29T11:01:51;1;0.5;0
74436;PMS7003;62868;52.360;30.424;2023-01-29T11:06:09;0.3;0;0
74436;PMS7003;62868;52.360;30.424;2023-01-29T11:11:07;0.3;0;0
74436;PMS7003;62868;52.360;30.424;2023-01-29T11:16:07;1;0;0
74436;PMS7003;62868;52.360;30.424;2023-01-29T11:21:51;0.3;0;0
74436;PMS7003;62868;52.360;30.424;2023-01-29T11:26:41;0.3;0;0
74436;PMS7003;62868;52.360;30.424;2023-01-29T11:31:34;0;0;0
74436;PMS7003;62868;52.360;30.424;2023-01-29T11:36:58;0.3;0;0
74436;PMS7003;62868;52.360;30.424;2023-01-29T11:41:31;0.8;0.3;0.3
74436;PMS7003;62868;52.360;30.424;2023-01-29T11:46:19;0.3;0;0
74436;PMS7003;62868;52.360;30.424;2023-01-29T11:51:07;0;0;0
74436;PMS7003;62868;52.360;30.424;2023-01-29T11:56:43;0;0;0
74436;PMS7003;62868;52.360;30.424;2023-01-29T12:01:22;0.3;0;0
74436;PMS7003;62868;52.360;30.424;2023-01-29T12:06:32;0.3;0.3;0
74436;PMS7003;62868;52.360;30.424;2023-01-29T12:11:55;0.7;0;0
74436;PMS7003;62868;52.360;30.424;2023-01-29T12:16:29;0;0;0
74436;PMS7003;62868;52.360;30.424;2023-01-29T12:21:58;0.3;0.3;0
74436;PMS7003;62868;52.360;30.424;2023-01-29T12:26:30;0.7;0;0
74436;PMS7003;62868;52.360;30.424;2023-01-29T12:31:54;0.7;0;0
74436;PMS7003;62868;52.360;30.424;2023-01-29T12:36:08;1;0.7;0
74436;PMS7003;62868;52.360;30.424;2023-01-29T12:41:44;0.3;0.3;0
74436;PMS7003;62868;52.360;30.424;2023-01-29T12:46:07;0;0;0
74436;PMS7003;62868;52.360;30.424;2023-01-29T12:51:48;0.3;0;0
74436;PMS7003;62868;52.360;30.424;2023-01-29T12:56:31;0.5;0.3;0
74436;PMS7003;62868;52.360;30.424;2023-01-29T13:01:42;0.7;0.3;0
74436;PMS7003;62868;52.360;30.424;2023-01-29T13:06:41;0;0;0
74436;PMS7003;62868;52.360;30.424;2023-01-29T13:11:57;0.3;0;0
74436;PMS7003;62868;52.360;30.424;2023-01-29T13:17:06;0.8;0;0
74436;PMS7003;62868;52.360;30.424;2023-01-29T13:21:43;0;0;0
74436;PMS7003;62868;52.360;30.424;2023-01-29T13:26:57;0.7;0.3;0
74436;PMS7003;62868;52.360;30.424;2023-01-29T13:31:11;1;0.3;0
74436;PMS7003;62868;52.360;30.424;2023-01-29T13:36:43;0.8;0;0
74436;PMS7003;62868;52.360;30.424;2023-01-29T13:41:07;1;0.3;0
74436;PMS7003;62868;52.360;30.424;2023-01-29T13:46:45;0.7;0.3;0.3
74436;PMS7003;62868;52.360;30.424;2023-01-29T13:51:19;0.3;0.3;0
74436;PMS7003;62868;52.360;30.424;2023-01-29T13:56:58;0.3;0;0
74436;PMS7003;62868;52.360;30.424;2023-01-29T14:02:18;0.7;0;0
74436;PMS7003;62868;52.360;30.424;2023-01-29T14:06:58;0.7;0.3;0
74436;PMS7003;62868;52.360;30.424;2023-01-29T14:11:46;0;0;0
74436;PMS7003;62868;52.360;30.424;2023-01-29T14:16:59;0.5;0;0
74436;PMS7003;62868;52.360;30.424;2023-01-29T14:21:16;0.7;0.3;0
74436;PMS7003;62868;52.360;30.424;2023-01-29T14:27:13;0.7;0;0
74436;PMS7003;62868;52.360;30.424;2023-01-29T14:31:40;0;0;0
74436;PMS7003;62868;52.360;30.424;2023-01-29T14:36:21;1;0;0
74436;PMS7003;62868;52.360;30.424;2023-01-29T14:41:43;0;0;0
74436;PMS7003;62868;52.360;30.424;2023-01-29T14:46:50;0;0;0
74436;PMS7003;62868;52.360;30.424;2023-01-29T14:51:55;0.3;0;0
74436;PMS7003;62868;52.360;30.424;2023-01-29T14:56:09;0.7;0.3;0
74436;PMS7003;62868;52.360;30.424;2023-01-29T15:01:53;0.7;0.3;0
74436;PMS7003;62868;52.360;30.424;2023-01-29T15:06:31;1.3;1;0.3
74436;PMS7003;62868;52.360;30.424;2023-01-29T15:11:07;1;0;0
74436;PMS7003;62868;52.360;30.424;2023-01-29T15:16:32;0.7;0.3;0
74436;PMS7003;62868;52.360;30.424;2023-01-29T15:21:20;0.3;0;0
74436;PMS7003;62868;52.360;30.424;2023-01-29T15:26:43;0;0;0
74436;PMS7003;62868;52.360;30.424;2023-01-29T15:31:19;0.5;0;0
74436;PMS7003;62868;52.360;30.424;2023-01-29T15:36:31;0;0;0
74436;PMS7003;62868;52.360;30.424;2023-01-29T15:41:31;0;0;0
74436;PMS7003;62868;52.360;30.424;2023-01-29T15:46:46;0.3;0;0
74436;PMS7003;62868;52.360;30.424;2023-01-29T15:51:33;0.8;0.5;0
74436;PMS7003;62868;52.360;30.424;2023-01-29T15:56:45;0.3;0;0
74436;PMS7003;62868;52.360;30.424;2023-01-29T16:01:33;0.7;0;0
74436;PMS7003;62868;52.360;30.424;2023-01-29T16:06:21;0.3;0;0
74436;PMS7003;62868;52.360;30.424;2023-01-29T16:11:19;0.3;0;0
74436;PMS7003;62868;52.360;30.424;2023-01-29T16:16:19;1;0.3;0
74436;PMS7003;62868;52.360;30.424;2023-01-29T16:21:57;4.7;4.7;4
74436;PMS7003;62868;52.360;30.424;2023-01-29T16:26:56;3.3;3.3;2.3
74436;PMS7003;62868;52.360;30.424;2023-01-29T16:31:29;2.5;1.3;1
74436;PMS7003;62868;52.360;30.424;2023-01-29T16:36:55;0.7;0.7;0.7
74436;PMS7003;62868;52.360;30.424;2023-01-29T16:42:06;0.7;0.7;0.7
74436;PMS7003;62868;52.360;30.424;2023-01-29T16:46:35;0.7;0.3;0
74436;PMS7003;62868;52.360;30.424;2023-01-29T16:51:11;0.8;0.3;0.3
74436;PMS7003;62868;52.360;30.424;2023-01-29T16:56:59;1;0.7;0.7
74436;PMS7003;62868;52.360;30.424;2023-01-29T17:01:08;0.3;0.3;0.3
74436;PMS7003;62868;52.360;30.424;2023-01-29T17:06:31;1.5;0.8;0.5
74436;PMS7003;62868;52.360;30.424;2023-01-29T17:11:32;0.7;0.3;0.3
74436;PMS7003;62868;52.360;30.424;2023-01-29T17:16:47;1;0.3;0.3
74436;PMS7003;62868;52.360;30.424;2023-01-29T17:21:45;0.3;0;0
74436;PMS7003;62868;52.360;30.424;2023-01-29T17:26:33;0.3;0.3;0
74436;PMS7003;62868;52.360;30.424;2023-01-29T17:31:53;0.7;0.3;0.3
74436;PMS7003;62868;52.360;30.424;2023-01-29T17:36:29;0.7;0.3;0
74436;PMS7003;62868;52.360;30.424;2023-01-29T17:41:43;0.7;0;0
74436;PMS7003;62868;52.360;30.424;2023-01-29T17:46:08;0.8;0.5;0
74436;PMS7003;62868;52.360;30.424;2023-01-29T17:51:33;1;0.3;0.3
74436;PMS7003;62868;52.360;30.424;2023-01-29T17:56:31;0.3;0;0
74436;PMS7003;62868;52.360;30.424;2023-01-29T18:01:31;0;0;0
74436;PMS7003;62868;52.360;30.424;2023-01-29T18:06:43;0.5;0;0
74436;PMS7003;62868;52.360;30.424;2023-01-29T18:11:41;1.3;0;0
74436;PMS7003;62868;52.360;30.424;2023-01-29T18:16:43;0.7;0;0
74436;PMS7003;62868;52.360;30.424;2023-01-29T18:21:17;0;0;0
74436;PMS7003;62868;52.360;30.424;2023-01-29T18:26:55;0.5;0.3;0
74436;PMS7003;62868;52.360;30.424;2023-01-29T18:31:07;0.3;0;0
74436;PMS7003;62868;52.360;30.424;2023-01-29T18:36:37;0;0;0
74436;PMS7003;62868;52.360;30.424;2023-01-29T18:41:07;0.7;0.3;0
74436;PMS7003;62868;52.360;30.424;2023-01-29T18:46:43;1;0;0
74436;PMS7003;62868;52.360;30.424;2023-01-29T18:51:21;1;0.3;0
74436;PMS7003;62868;52.360;30.424;2023-01-29T18:56:08;1;0.3;0
74436;PMS7003;62868;52.360;30.424;2023-01-29T19:01:43;0.8;0;0
74436;PMS7003;62868;52.360;30.424;2023-01-29T19:06:31;0.3;0;0
74436;PMS7003;62868;52.360;30.424;2023-01-29T19:11:55;0.7;0.3;0
74436;PMS7003;62868;52.360;30.424;2023-01-29T19:16:07;1;0.3;0
74436;PMS7003;62868;52.360;30.424;2023-01-29T19:21:55;1;0;0
74436;PMS7003;62868;52.360;30.424;2023-01-29T19:26:07;0.7;0.7;0
74436;PMS7003;62868;52.360;30.424;2023-01-29T19:31:37;0;0;0
74436;PMS7003;62868;52.360;30.424;2023-01-29T19:36:19;0;0;0
74436;PMS7003;62868;52.360;30.424;2023-01-29T19:41:45;1;0;0
74436;PMS7003;62868;52.360;30.424;2023-01-29T19:46:21;0.3;0.3;0
74436;PMS7003;62868;52.360;30.424;2023-01-29T19:51:57;0;0;0
74436;PMS7003;62868;52.360;30.424;2023-01-29T19:56:45;0.7;0;0
74436;PMS7003;62868;52.360;30.424;2023-01-29T20:01:53;0.3;0;0
74436;PMS7003;62868;52.360;30.424;2023-01-29T20:06:55;0;0;0
74436;PMS7003;62868;52.360;30.424;2023-01-29T20:11:45;0.3;0;0
74436;PMS7003;62868;52.360;30.424;2023-01-29T20:16:57;1.3;0.7;0
74436;PMS7003;62868;52.360;30.424;2023-01-29T20:21:08;0.5;0;0
74436;PMS7003;62868;52.360;30.424;2023-01-29T20:26:45;1;0;0
74436;PMS7003;62868;52.360;30.424;2023-01-29T20:31:08;0.3;0;0
74436;PMS7003;62868;52.360;30.424;2023-01-29T20:36:31;0.3;0.3;0
74436;PMS7003;62868;52.360;30.424;2023-01-29T20:41:33;0.3;0.3;0
74436;PMS7003;62868;52.360;30.424;2023-01-29T20:46:55;0;0;0
74436;PMS7003;62868;52.360;30.424;2023-01-29T20:51:31;0;0;0
74436;PMS7003;62868;52.360;30.424;2023-01-29T20:56:57;0;0;0
74436;PMS7003;62868;52.360;30.424;2023-01-29T21:01:37;0.7;0;0
74436;PMS7003;62868;52.360;30.424;2023-01-29T21:06:33;1;0.3;0
74436;PMS7003;62868;52.360;30.424;2023-01-29T21:11:33;0.3;0;0
74436;PMS7003;62868;52.360;30.424;2023-01-29T21:16:19;0.3;0;0
74436;PMS7003;62868;52.360;30.424;2023-01-29T21:21:43;0;0;0
74436;PMS7003;62868;52.360;30.424;2023-01-29T21:26:19;0;0;0
74436;PMS7003;62868;52.360;30.424;2023-01-29T21:31:31;1;0.3;0
74436;PMS7003;62868;52.360;30.424;2023-01-29T21:36:33;0.8;0.5;0.3
74436;PMS7003;62868;52.360;30.424;2023-01-29T21:41:59;0;0;0
74436;PMS7003;62868;52.360;30.424;2023-01-29T21:46:33;1;0;0
74436;PMS7003;62868;52.360;30.424;2023-01-29T21:51:41;0.3;0;0
74436;PMS7003;62868;52.360;30.424;2023-01-29T21:56:17;0.5;0;0
74436;PMS7003;62868;52.360;30.424;2023-01-29T22:01:29;0.3;0;0
74436;PMS7003;62868;52.360;30.424;2023-01-29T22:06:17;0.3;0;0
74436;PMS7003;62868;52.360;30.424;2023-01-29T22:11:33;0;0;0
74436;PMS7003;62868;52.360;30.424;2023-01-29T22:16:59;0.5;0;0
74436;PMS7003;62868;52.360;30.424;2023-01-29T22:21:57;0;0;0
74436;PMS7003;62868;52.360;30.424;2023-01-29T22:26:07;0.7;0;0
74436;PMS7003;62868;52.360;30.424;2023-01-29T22:31:57;0.8;0;0
74436;PMS7003;62868;52.360;30.424;2023-01-29T22:36:57;1.3;0.3;0.3
74436;PMS7003;62868;52.360;30.424;2023-01-29T22:41:35;0.7;0;0
74436;PMS7003;62868;52.360;30.424;2023-01-29T22:46:07;0;0;0
74436;PMS7003;62868;52.360;30.424;2023-01-29T22:51:59;0.3;0;0
74436;PMS7003;62868;52.360;30.424;2023-01-29T22:56:07;0.7;0.7;0
74436;PMS7003;62868;52.360;30.424;2023-01-29T23:01:07;0;0;0
74436;PMS7003;62868;52.360;30.424;2023-01-29T23:06:07;0.3;0;0
74436;PMS7003;62868;52.360;30.424;2023-01-29T23:11:39;0.5;0.3;0
74436;PMS7003;62868;52.360;30.424;2023-01-29T23:16:41;0.7;0;0
74436;PMS7003;62868;52.360;30.424;2023-01-29T23:21:07;0;0;0
74436;PMS7003;62868;52.360;30.424;2023-01-29T23:26:55;1;0.3;0.3
74436;PMS7003;62868;52.360;30.424;2023-01-29T23:31:23;0.5;0.3;0
74436;PMS7003;62868;52.360;30.424;2023-01-29T23:36:37;0;0;0
74436;PMS7003;62868;52.360;30.424;2023-01-29T23:41:07;2.3;0.3;0
74436;PMS7003;62868;52.360;30.424;2023-01-29T23:46:53;0.3;0;0
74436;PMS7003;62868;52.360;30.424;2023-01-29T23:51:29;0.8;0;0
74436;PMS7003;62868;52.360;30.424;2023-01-29T23:56:08;0.7;0;0
